Airfield :
LOGIN :

Register | Disclaimer

   EN    FR    IT 

 










Legend :    VFR   Marginal VFR   IFR   Intensive IFR   Very Intensive IFR
Visi :
Ceiling :
>= 8 km
>= 3000ft
5 to 8 km
1000 to 3000 ft
1500m to 5 km
500 to 1000 ft
800 to 1500m
200 to 500 ft
< 800m
< 200 ft
Symbols :   Thunderstorms  Fog  Heavy snow  Heavy precipitations  Wind > 20 kt
SIGMETs :     Misc.  Thunderstorms  Icing  Turbulence  Mountain Waves  Volcanic Ashes






- Airport Elevation : 138 ft
- IATA code : RLG


ETNL - Rostock Laage

CURRENT METAR :
  • 282320Z 09003KT 9999 MIFG FEW090 11/10 Q1015 BLU+

EXPIRED METARs :
  • 282220Z 13002KT 9999 MIFG FEW090 11/11 Q1016 BLU+
  • 282120Z 08004KT 9999 MIFG FEW090 12/11 Q1016 BLU+
  • 282020Z 11002KT 9999 FEW040 SCT090 13/12 Q1016 BLU+
  • 281920Z 11002KT 9999 FEW020 14/11 Q1016 BLU+FCST CNL

TAF COR TAF ETNL
Valid from the 28 at 23:00 until the 29 at 11:00 UTC


282206Z 2823/2911 12003KT 8000 MIFG FEW060
TEMPO 2823/2902 VRB02KT 0500 FG FEW300
BECMG 2902/2904 13005KT 9999 NSW BKN090 BKN250
PROB30 2909/2911 15008KT 7000 -RA BKN030



MET'MAP, your aeronautical weather chart ! - Copyright ORBIFLY December 2007 - Disclaimer

ORBIFLY MET'MAP TEAM :

Programming & Development : Alexandra Zaïnal
Original concept : Baudouin d'Aumeries
Technical & hardware support : Manuel Goepfert
Assistance : Marc-Olivier Méhu




SOURCES & CREDITS :

   NOAA